Porto Velho, Brazil
Current Conditions -  °F | °C
As of 11:00 PM on Sunday 21 Dec 2014 (Local Time) from SBPV Reporting Station
Scattered Clouds Scattered Clouds  
Wind Chill: 77°   Ceiling: Unl
Heat Index: 78°   Visibility: 6mi
Dew Point: 75°   Wind: 2mph
Humidity: 94%   Direction: 10°N
Pressure: 29.83"   Gusts: NA
Location:  8.76°S, 63.91°W
Report Text: SBPV 220300Z 01002KT 9999 FEW020 SCT080 25/24 Q1010
Loading
Personal Weather Stations






























Interactive Weather Map New forecast layout! Learn more

10-Day Weather Forecast

Advertisements
Track Severe Weather on mobile